Airfield :
LOGIN :

Register | Disclaimer

   EN    FR    IT 

 










Legend :    VFR   Marginal VFR   IFR   Intensive IFR   Very Intensive IFR
Visi :
Ceiling :
>= 8 km
>= 3000ft
5 to 8 km
1000 to 3000 ft
1500m to 5 km
500 to 1000 ft
800 to 1500m
200 to 500 ft
< 800m
< 200 ft
Symbols :   Thunderstorms  Fog  Heavy snow  Heavy precipitations  Wind > 20 kt
SIGMETs :     Misc.  Thunderstorms  Icing  Turbulence  Mountain Waves  Volcanic Ashes






- Airport Elevation : 3360 ft
- IATA code : QSF


DAAS - 8 Mai 45

CURRENT METAR :
  • 091700Z 05005KT 350V150 9999 TS BKN026 FEW030CB 15/10 Q1020

EXPIRED METARs :
  • 091600Z 01003KT 320V110 9999 TS SCT026 FEW030CB 15/06 Q1019
  • 091500Z 24008KT 9999 -TSRA BKN026 FEW030CB 19/04 Q1019

TAF TAF DAAS
Valid from the 09 at 18:00 until the 10 at 18:00 UTC


091700Z 0918/1018 31008KT 9999 FEW026CB SCT030
TEMPO 0918/0921 33015G25KT 4000 -TSRA
BECMG 0922/0924 SCT026
PROB40
TEMPO 1000/1008 3000 BR BKN013
PROB30
TEMPO 1002/1007 0300 FG BKN004
TEMPO 1012/1018 FEW026CB
PROB30
TEMPO 1014/1018 5000 -TSRA



MET'MAP, your aeronautical weather chart ! - Copyright ORBIFLY December 2007 - Disclaimer

ORBIFLY MET'MAP TEAM :

Programming & Development : Alexandra Zaïnal
Concept & original design : Baudouin d'Aumeries
Assistance for programming : Marc-Olivier Méhu
Technical & hardware support : Manuel Goepfert

Contact : metmap@orbifly.com




SOURCES & CREDITS :

   NOAA